Time;durP1;ratioP1;P1;durP2;ratioP2;P2;SDS_P1;SDS_P2;PMS_P1;PMS_P2;Temp;Humidity;BMP_temperature;BMP_pressure;BME280_temperature;BME280_humidity;BME280_pressure;Samples;Min_cycle;Max_cycle;Signal;HPM_P1;HPM_P2
2023/09/03 00:01:27;;;;;;;45.55;36.38;;;18.10;99.90;;;;;;5092842;28;20540;-80
2023/09/03 00:03:52;;;;;;;49.13;37.70;;;18.10;99.90;;;;;;5092824;28;20639;-81
2023/09/03 00:06:18;;;;;;;49.50;37.37;;;18.10;99.90;;;;;;5092907;28;20646;-81
2023/09/03 00:08:43;;;;;;;48.27;36.87;;;18.10;99.90;;;;;;5092611;28;20495;-81
2023/09/03 00:11:09;;;;;;;48.90;36.27;;;18.10;99.90;;;;;;5092507;28;20196;-81
2023/09/03 00:13:35;;;;;;;47.23;38.03;;;18.00;99.90;;;;;;5092603;28;20518;-81
2023/09/03 00:16:00;;;;;;;49.73;38.00;;;18.00;99.90;;;;;;5092709;28;20176;-81
2023/09/03 00:18:26;;;;;;;50.20;36.93;;;18.00;99.90;;;;;;5094915;28;20218;-81
2023/09/03 00:21:02;;;;;;;47.00;35.83;;;17.90;99.90;;;;;;5096118;28;20295;-81
2023/09/03 00:23:28;;;;;;;52.10;37.60;;;18.00;99.90;;;;;;5096298;28;20225;-80
2023/09/03 00:25:56;;;;;;;52.70;39.00;;;17.90;99.90;;;;;;5095835;28;20172;-81
2023/09/03 00:28:22;;;;;;;50.27;38.50;;;17.80;99.90;;;;;;5096209;28;20180;-80
2023/09/03 00:31:04;;;;;;;53.93;37.30;;;17.80;99.90;;;;;;5096157;28;20212;-80
2023/09/03 00:33:29;;;;;;;50.10;37.77;;;17.80;99.90;;;;;;5095838;28;20191;-81
2023/09/03 00:35:55;;;;;;;53.63;39.37;;;17.70;99.90;;;;;;5094776;28;20196;-80
2023/09/03 00:38:21;;;;;;;53.43;38.87;;;17.70;99.90;;;;;;5095664;28;20728;-80
2023/09/03 00:40:46;;;;;;;49.83;37.53;;;17.70;99.90;;;;;;5096033;28;20290;-80
2023/09/03 00:43:12;;;;;;;55.00;39.10;;;17.70;99.90;;;;;;5095942;28;20183;-80
2023/09/03 00:45:41;;;;;;;54.73;40.27;;;17.60;99.90;;;;;;5096094;28;20180;-80
2023/09/03 00:48:09;;;;;;;55.13;39.13;;;17.60;99.90;;;;;;5095919;28;20219;-80
2023/09/03 00:50:37;;;;;;;56.53;40.37;;;17.60;99.90;;;;;;5095923;28;20176;-80
2023/09/03 00:53:05;;;;;;;59.07;40.13;;;17.60;99.90;;;;;;5095479;28;20183;-80
2023/09/03 00:55:32;;;;;;;59.90;40.90;;;17.60;99.90;;;;;;5078105;28;20524;-82
2023/09/03 00:58:00;;;;;;;57.80;40.70;;;17.60;99.90;;;;;;5095851;28;20250;-82
2023/09/03 01:00:26;;;;;;;58.60;40.77;;;17.60;99.90;;;;;;5095697;28;20266;-81
2023/09/03 01:02:54;;;;;;;56.27;39.77;;;17.50;99.90;;;;;;5095482;28;20271;-81
2023/09/03 01:05:20;;;;;;;55.70;39.50;;;17.60;99.90;;;;;;5095755;28;20164;-81
2023/09/03 01:07:47;;;;;;;53.77;40.23;;;17.60;99.90;;;;;;5095323;28;20160;-82
2023/09/03 01:10:13;;;;;;;52.47;37.53;;;17.50;99.90;;;;;;5095518;28;20228;-81
2023/09/03 01:12:50;;;;;;;55.40;39.10;;;17.50;99.90;;;;;;5095464;28;20164;-81
2023/09/03 01:15:28;;;;;;;51.97;38.30;;;17.40;99.90;;;;;;5095190;28;20163;-81
2023/09/03 01:18:02;;;;;;;56.37;40.03;;;17.40;99.90;;;;;;5095205;28;20412;-81
2023/09/03 01:20:35;;;;;;;55.77;39.10;;;17.40;99.90;;;;;;5093892;28;20331;-80
2023/09/03 01:23:11;;;;;;;54.50;39.17;;;17.50;99.90;;;;;;5094931;28;20178;-80
2023/09/03 01:26:13;;;;;;;56.10;39.67;;;17.40;99.90;;;;;;5095083;28;20246;-81
2023/09/03 01:28:40;;;;;;;60.60;40.17;;;17.40;99.90;;;;;;5094634;28;20171;-80
2023/09/03 01:31:13;;;;;;;57.23;40.60;;;17.30;99.90;;;;;;5094706;28;20205;-79
2023/09/03 01:33:41;;;;;;;62.17;42.60;;;17.30;99.90;;;;;;5095290;28;20164;-80
2023/09/03 01:36:09;;;;;;;59.73;42.17;;;17.30;99.90;;;;;;5094878;28;20322;-80
2023/09/03 01:38:36;;;;;;;62.47;43.00;;;17.20;99.90;;;;;;5094900;28;20199;-81
2023/09/03 01:41:02;;;;;;;63.00;42.13;;;17.30;99.90;;;;;;5094921;28;20251;-80
2023/09/03 01:43:28;;;;;;;60.10;40.77;;;17.20;99.90;;;;;;5093487;28;20179;-80
2023/09/03 01:45:56;;;;;;;62.53;43.73;;;17.20;99.90;;;;;;5094758;28;20172;-80
2023/09/03 01:48:59;;;;;;;61.13;41.63;;;17.20;99.90;;;;;;5094788;28;20183;-80
2023/09/03 01:51:36;;;;;;;64.50;42.87;;;17.10;99.90;;;;;;5094681;28;20171;-80
2023/09/03 01:54:21;;;;;;;59.00;39.97;;;17.10;99.90;;;;;;5094954;28;20164;-79
2023/09/03 01:56:58;;;;;;;62.03;41.47;;;17.00;99.90;;;;;;5094556;28;20211;-79
2023/09/03 01:59:49;;;;;;;61.73;40.93;;;17.00;99.90;;;;;;5094728;28;20175;-80
2023/09/03 02:02:16;;;;;;;63.73;42.53;;;17.00;99.90;;;;;;5093943;28;20188;-81
2023/09/03 02:04:41;;;;;;;62.87;41.13;;;16.90;99.90;;;;;;5094398;28;20285;-81
2023/09/03 02:07:07;;;;;;;64.07;43.10;;;16.90;99.90;;;;;;5093079;28;20266;-81
2023/09/03 02:09:33;;;;;;;65.63;43.90;;;16.90;99.90;;;;;;5094108;28;20199;-81
2023/09/03 02:11:58;;;;;;;65.40;44.00;;;16.90;99.90;;;;;;5094403;28;20172;-81
2023/09/03 02:14:24;;;;;;;71.97;44.47;;;16.80;99.90;;;;;;5094377;28;20176;-81
2023/09/03 02:16:50;;;;;;;67.20;45.07;;;16.90;99.90;;;;;;5094337;28;20219;-81
2023/09/03 02:19:16;;;;;;;63.67;42.30;;;16.90;99.90;;;;;;5094138;28;20223;-81
2023/09/03 02:21:42;;;;;;;67.30;43.73;;;16.90;99.90;;;;;;5093935;28;20261;-81
2023/09/03 02:24:07;;;;;;;67.60;44.10;;;16.90;99.90;;;;;;5093879;28;20185;-80
2023/09/03 02:26:40;;;;;;;62.13;43.03;;;16.90;99.90;;;;;;5093953;28;20639;-79
2023/09/03 02:29:06;;;;;;;64.40;42.10;;;16.80;99.90;;;;;;5094145;28;20163;-79
2023/09/03 02:31:31;;;;;;;63.97;43.33;;;16.80;99.90;;;;;;5093904;28;20503;-81
2023/09/03 02:33:57;;;;;;;65.37;43.73;;;16.90;99.90;;;;;;5093714;28;20182;-80
2023/09/03 02:36:23;;;;;;;64.13;41.67;;;16.80;99.90;;;;;;5093458;28;20199;-78
2023/09/03 02:38:59;;;;;;;62.60;42.17;;;16.80;99.90;;;;;;5093835;28;20172;-79
2023/09/03 02:41:24;;;;;;;60.53;40.90;;;16.80;99.90;;;;;;5093785;28;20207;-80
2023/09/03 02:43:50;;;;;;;64.13;42.43;;;16.80;99.90;;;;;;5093694;28;20202;-79
2023/09/03 02:46:15;;;;;;;64.77;42.90;;;16.80;99.90;;;;;;5093554;28;20639;-80
2023/09/03 02:48:41;;;;;;;65.27;43.27;;;16.80;99.90;;;;;;5094135;28;20236;-80
2023/09/03 02:51:07;;;;;;;71.43;45.47;;;16.70;99.90;;;;;;5093347;28;20706;-80
2023/09/03 02:53:32;;;;;;;65.27;42.50;;;16.70;99.90;;;;;;5093441;28;20179;-81
2023/09/03 02:55:58;;;;;;;66.80;43.40;;;16.70;99.90;;;;;;5093537;28;20195;-81
2023/09/03 02:58:25;;;;;;;66.13;44.07;;;16.70;99.90;;;;;;5092304;28;20204;-80
2023/09/03 03:00:50;;;;;;;63.87;42.37;;;16.70;99.90;;;;;;5092350;28;20175;-81
2023/09/03 03:03:16;;;;;;;70.20;43.83;;;16.70;99.90;;;;;;5093266;28;20168;-80
2023/09/03 03:05:41;;;;;;;70.80;43.03;;;16.80;99.90;;;;;;5092765;28;20163;-80
2023/09/03 03:08:08;;;;;;;66.53;42.10;;;16.80;99.90;;;;;;5092231;28;20172;-80
2023/09/03 03:10:34;;;;;;;65.93;40.93;;;16.60;99.90;;;;;;5093539;28;20235;-80
2023/09/03 03:12:59;;;;;;;66.87;42.90;;;16.60;99.90;;;;;;5093349;28;20164;-81
2023/09/03 03:15:25;;;;;;;66.20;42.70;;;16.60;99.90;;;;;;5093114;28;20172;-80
2023/09/03 03:17:51;;;;;;;68.07;42.87;;;16.60;99.90;;;;;;5093075;28;20195;-79
2023/09/03 03:20:17;;;;;;;69.73;43.47;;;16.60;99.90;;;;;;5093393;28;20268;-80
2023/09/03 03:22:43;;;;;;;63.53;41.73;;;16.60;99.90;;;;;;5093400;28;20225;-80
2023/09/03 03:25:09;;;;;;;65.27;42.13;;;16.60;99.90;;;;;;5093413;28;20172;-80
2023/09/03 03:27:35;;;;;;;69.47;43.67;;;16.50;99.90;;;;;;5093305;28;20203;-80
2023/09/03 03:30:01;;;;;;;71.50;44.57;;;16.50;99.90;;;;;;5093201;28;20163;-80
2023/09/03 03:32:26;;;;;;;67.03;43.50;;;16.50;99.90;;;;;;5092796;28;20643;-80
2023/09/03 03:34:52;;;;;;;72.50;43.83;;;16.40;99.90;;;;;;5092672;28;20659;-80
2023/09/03 03:37:18;;;;;;;65.13;42.70;;;16.40;99.90;;;;;;5091782;28;20570;-80
2023/09/03 03:39:47;;;;;;;73.63;45.67;;;16.40;99.90;;;;;;5093019;28;20172;-80
2023/09/03 03:42:13;;;;;;;72.53;45.37;;;16.40;99.90;;;;;;5093006;28;20179;-79
2023/09/03 03:44:38;;;;;;;73.03;45.97;;;16.40;99.90;;;;;;5092918;28;20168;-82
2023/09/03 03:47:04;;;;;;;81.10;45.17;;;16.40;99.90;;;;;;5092727;28;20171;-81
2023/09/03 03:49:30;;;;;;;80.50;46.10;;;16.40;99.90;;;;;;5092621;28;20662;-80
2023/09/03 03:51:55;;;;;;;83.13;48.27;;;16.40;99.90;;;;;;5092985;28;20577;-79
2023/09/03 03:54:21;;;;;;;85.97;46.73;;;16.40;99.90;;;;;;5096718;28;20171;-80
2023/09/03 03:56:46;;;;;;;92.90;49.10;;;16.40;99.90;;;;;;5096734;28;20553;-80
2023/09/03 03:59:12;;;;;;;93.63;48.57;;;16.30;99.90;;;;;;5095248;28;20228;-81
2023/09/03 04:01:38;;;;;;;95.90;50.13;;;16.30;99.90;;;;;;5096466;28;20172;-80
2023/09/03 04:04:04;;;;;;;108.27;51.40;;;16.30;99.90;;;;;;5096459;28;20212;-81
2023/09/03 04:06:31;;;;;;;102.77;50.57;;;16.30;99.90;;;;;;5096634;28;20164;-81
2023/09/03 04:08:57;;;;;;;90.20;48.83;;;16.30;99.90;;;;;;5096662;28;20247;-80
2023/09/03 04:11:24;;;;;;;95.63;49.10;;;16.30;99.90;;;;;;5096660;28;20670;-81
2023/09/03 04:13:49;;;;;;;94.07;49.70;;;16.30;99.90;;;;;;5096657;28;20160;-80
2023/09/03 04:16:19;;;;;;;107.40;51.43;;;16.30;99.90;;;;;;5096148;28;20175;-81
2023/09/03 04:18:45;;;;;;;107.67;50.20;;;16.30;99.90;;;;;;5096422;28;20179;-79
2023/09/03 04:21:11;;;;;;;120.80;53.27;;;16.30;99.90;;;;;;5096286;28;20164;-81
2023/09/03 04:23:37;;;;;;;126.00;53.97;;;16.30;99.90;;;;;;5096665;28;20232;-81
2023/09/03 04:26:03;;;;;;;117.37;54.37;;;16.20;99.90;;;;;;5095885;28;20635;-81
2023/09/03 04:28:29;;;;;;;109.77;53.00;;;16.30;99.90;;;;;;5096200;28;20572;-80
2023/09/03 04:30:59;;;;;;;106.57;51.23;;;16.30;99.90;;;;;;5095985;28;20196;-80
2023/09/03 04:33:25;;;;;;;136.67;53.73;;;16.30;99.90;;;;;;5096149;28;20167;-80
2023/09/03 04:35:58;;;;;;;123.80;54.87;;;16.20;99.90;;;;;;5096066;28;20648;-80
2023/09/03 04:38:25;;;;;;;112.10;53.50;;;16.20;99.90;;;;;;5096156;28;20655;-82
2023/09/03 04:40:51;;;;;;;121.20;55.70;;;16.20;99.90;;;;;;5095936;28;20164;-81
2023/09/03 04:43:17;;;;;;;129.97;56.10;;;16.30;99.90;;;;;;5077821;28;20615;-81
2023/09/03 04:45:51;;;;;;;113.27;53.93;;;16.30;99.90;;;;;;5095323;28;20199;-79
2023/09/03 04:48:17;;;;;;;123.73;56.13;;;16.40;99.90;;;;;;5095841;28;20152;-80
2023/09/03 04:50:43;;;;;;;112.60;53.30;;;16.40;99.90;;;;;;5095370;28;20186;-79
2023/09/03 04:53:09;;;;;;;118.10;56.83;;;16.40;99.90;;;;;;5095696;28;20168;-80
2023/09/03 04:55:35;;;;;;;113.30;53.73;;;16.50;99.90;;;;;;5095639;28;20654;-80
2023/09/03 04:58:01;;;;;;;110.67;52.93;;;16.50;99.90;;;;;;5095489;28;20196;-81
2023/09/03 05:00:30;;;;;;;108.97;53.17;;;16.40;99.90;;;;;;5095055;28;20170;-81
2023/09/03 05:02:56;;;;;;;111.07;53.13;;;16.40;99.90;;;;;;5095534;28;20168;-79
2023/09/03 05:05:22;;;;;;;96.57;51.60;;;16.40;99.90;;;;;;5095702;28;20164;-81
2023/09/03 05:07:47;;;;;;;105.53;52.70;;;16.40;99.90;;;;;;5095601;28;20250;-80
2023/09/03 05:10:14;;;;;;;97.30;50.90;;;16.40;99.90;;;;;;5095503;28;20620;-81
2023/09/03 05:12:43;;;;;;;98.90;51.00;;;16.40;99.90;;;;;;5095049;28;20646;-80
2023/09/03 05:15:10;;;;;;;91.03;49.43;;;16.50;99.90;;;;;;5095038;28;20180;-80
2023/09/03 05:17:36;;;;;;;94.10;49.50;;;16.40;99.90;;;;;;5095541;28;20569;-80
2023/09/03 05:20:02;;;;;;;93.23;50.00;;;16.40;99.90;;;;;;5094821;28;20227;-80
2023/09/03 05:22:28;;;;;;;96.77;50.47;;;16.50;99.90;;;;;;5095334;28;20176;-80
2023/09/03 05:24:53;;;;;;;95.73;50.33;;;16.50;99.90;;;;;;5094869;28;20172;-80
2023/09/03 05:27:19;;;;;;;85.50;47.83;;;16.50;99.90;;;;;;5094812;28;20195;-80
2023/09/03 05:29:45;;;;;;;87.23;48.60;;;16.50;99.90;;;;;;5094913;28;20179;-80
2023/09/03 05:32:10;;;;;;;88.67;49.33;;;16.40;99.90;;;;;;5093795;28;20200;-81
2023/09/03 05:34:36;;;;;;;86.57;48.10;;;16.50;99.90;;;;;;5094907;28;20549;-81
2023/09/03 05:37:03;;;;;;;90.93;48.73;;;16.40;99.90;;;;;;5094732;28;20203;-81
2023/09/03 05:39:29;;;;;;;88.80;47.47;;;16.30;99.90;;;;;;5094806;28;20321;-80
2023/09/03 05:41:54;;;;;;;99.43;49.77;;;16.40;99.90;;;;;;5094767;28;20188;-81
2023/09/03 05:44:20;;;;;;;96.77;50.10;;;16.40;99.90;;;;;;5094319;28;20160;-81
2023/09/03 05:46:45;;;;;;;93.40;49.50;;;16.50;99.90;;;;;;5094588;28;20242;-81
2023/09/03 05:49:11;;;;;;;92.33;48.13;;;16.60;99.90;;;;;;5093218;28;20175;-81
2023/09/03 05:51:37;;;;;;;89.40;46.07;;;16.50;99.90;;;;;;5094605;28;20221;-81
2023/09/03 05:54:03;;;;;;;87.97;46.40;;;16.50;99.90;;;;;;5093010;28;20662;-82
2023/09/03 05:56:29;;;;;;;86.87;45.63;;;16.40;99.90;;;;;;5094177;28;20164;-82
2023/09/03 05:58:56;;;;;;;99.83;47.30;;;16.50;99.90;;;;;;5093863;28;20232;-82
2023/09/03 06:01:21;;;;;;;75.97;44.17;;;16.50;99.90;;;;;;5094549;28;20172;-82
2023/09/03 06:03:47;;;;;;;76.77;44.53;;;16.40;99.90;;;;;;5094170;28;20229;-82
2023/09/03 06:06:13;;;;;;;94.27;46.10;;;16.50;99.90;;;;;;5094296;28;20202;-81
2023/09/03 06:08:39;;;;;;;80.53;44.60;;;16.50;99.90;;;;;;5094339;28;20172;-81
2023/09/03 06:11:05;;;;;;;81.50;44.80;;;16.40;99.90;;;;;;5094178;28;20186;-81
2023/09/03 06:13:33;;;;;;;82.93;45.43;;;16.40;99.90;;;;;;5093906;28;20263;-82
2023/09/03 06:15:58;;;;;;;75.07;44.00;;;16.40;99.90;;;;;;5093626;28;20198;-81
2023/09/03 06:18:24;;;;;;;79.73;45.40;;;16.40;99.90;;;;;;5094145;28;20560;-82
2023/09/03 06:20:50;;;;;;;85.10;44.63;;;16.50;99.90;;;;;;5093709;28;20218;-82
2023/09/03 06:23:20;;;;;;;81.00;46.10;;;16.50;99.90;;;;;;5094180;28;20164;-82
2023/09/03 06:25:46;;;;;;;83.17;46.37;;;16.60;99.90;;;;;;5092460;28;20552;-83
2023/09/03 06:28:12;;;;;;;85.13;47.37;;;16.60;99.90;;;;;;5093786;28;20164;-83
2023/09/03 06:30:38;;;;;;;79.20;45.10;;;16.80;99.90;;;;;;5092659;28;20168;-83
2023/09/03 06:33:04;;;;;;;79.27;46.47;;;16.80;99.90;;;;;;5093915;28;20243;-82
2023/09/03 06:35:30;;;;;;;72.73;44.47;;;17.00;99.90;;;;;;5093597;28;20183;-83
2023/09/03 06:37:58;;;;;;;76.07;43.40;;;17.00;99.90;;;;;;5093414;28;20203;-81
2023/09/03 06:40:24;;;;;;;71.60;43.90;;;17.10;99.90;;;;;;5093522;28;20156;-83
2023/09/03 06:42:51;;;;;;;73.60;43.77;;;17.30;99.90;;;;;;5093412;28;20187;-81
2023/09/03 06:45:17;;;;;;;72.00;42.10;;;17.70;99.90;;;;;;5093597;28;20160;-82
2023/09/03 06:47:42;;;;;;;66.43;41.73;;;17.80;99.90;;;;;;5093732;28;20674;-83
2023/09/03 06:50:08;;;;;;;63.47;40.27;;;17.90;99.90;;;;;;5092164;28;20196;-82
2023/09/03 06:52:34;;;;;;;61.77;39.07;;;18.20;99.90;;;;;;5093286;28;20206;-82
2023/09/03 06:55:01;;;;;;;60.13;38.00;;;18.00;99.90;;;;;;5093241;28;20168;-83
2023/09/03 06:57:26;;;;;;;61.45;39.42;;;18.10;99.90;;;;;;5092761;28;20226;-83
2023/09/03 06:59:52;;;;;;;55.28;36.95;;;18.20;99.90;;;;;;5092194;28;20176;-81
2023/09/03 07:02:17;;;;;;;50.70;35.90;;;18.70;99.90;;;;;;5093423;28;20623;-81
2023/09/03 07:04:43;;;;;;;52.47;36.78;;;19.20;99.90;;;;;;5093567;28;20199;-81
2023/09/03 07:07:09;;;;;;;50.17;35.25;;;19.50;99.90;;;;;;5093196;28;20696;-80
2023/09/03 07:09:35;;;;;;;50.55;35.42;;;19.90;99.90;;;;;;5092690;28;20167;-81
2023/09/03 07:12:01;;;;;;;43.65;32.95;;;20.40;99.90;;;;;;5092838;28;20518;-80
2023/09/03 07:14:33;;;;;;;47.92;34.17;;;20.50;99.90;;;;;;5092921;28;20171;-81
2023/09/03 07:17:00;;;;;;;40.60;32.28;;;20.60;99.90;;;;;;5093050;28;20282;-81
2023/09/03 07:19:30;;;;;;;45.67;33.17;;;21.00;99.90;;;;;;5093187;28;20223;-81
2023/09/03 07:21:55;;;;;;;42.75;33.15;;;21.60;99.90;;;;;;5093038;28;20164;-81
2023/09/03 07:24:21;;;;;;;40.65;31.80;;;22.40;99.90;;;;;;5093017;28;20241;-82
2023/09/03 07:26:47;;;;;;;35.88;30.17;;;23.30;99.90;;;;;;5093667;28;20210;-81
2023/09/03 07:29:15;;;;;;;36.88;31.20;;;23.90;99.90;;;;;;5097390;28;20279;-82
2023/09/03 07:31:43;;;;;;;34.20;29.92;;;23.80;99.90;;;;;;5097971;28;20171;-82
2023/09/03 07:34:11;;;;;;;34.28;28.77;;;23.60;99.90;;;;;;5097640;28;20190;-84
2023/09/03 07:36:37;;;;;;;32.03;28.63;;;23.80;99.90;;;;;;5097021;28;20650;-81
2023/09/03 07:39:05;;;;;;;34.05;28.80;;;24.60;99.90;;;;;;5097128;28;20255;-83
2023/09/03 07:41:31;;;;;;;33.25;28.38;;;24.40;99.90;;;;;;5101265;28;20243;-82
2023/09/03 07:43:57;;;;;;;35.35;30.40;;;25.20;99.90;;;;;;5097412;28;20263;-80
2023/09/03 07:46:23;;;;;;;31.90;28.55;;;26.20;99.90;;;;;;5096890;28;20254;-79
2023/09/03 07:48:48;;;;;;;30.85;27.65;;;26.70;99.90;;;;;;5097181;28;20247;-79
2023/09/03 07:51:15;;;;;;;30.38;27.30;;;27.60;99.90;;;;;;5096374;28;20255;-78
2023/09/03 07:53:41;;;;;;;30.65;27.52;;;28.50;99.80;;;;;;5095184;28;20172;-78
2023/09/03 07:56:06;;;;;;;30.58;27.38;;;27.50;99.90;;;;;;5096927;28;20503;-77
2023/09/03 07:58:32;;;;;;;31.08;27.88;;;26.50;99.90;;;;;;5096667;28;20212;-77
2023/09/03 08:00:57;;;;;;;30.30;27.10;;;26.60;99.90;;;;;;5096882;28;20171;-79
2023/09/03 08:03:33;;;;;;;29.15;26.08;;;27.60;99.90;;;;;;5096783;28;20191;-79
2023/09/03 08:06:00;;;;;;;29.10;26.15;;;28.90;98.90;;;;;;5097136;28;20171;-79
2023/09/03 08:08:26;;;;;;;29.23;26.33;;;28.50;97.50;;;;;;5100567;28;20180;-79
2023/09/03 08:10:52;;;;;;;27.90;25.15;;;28.30;99.20;;;;;;5103091;28;20164;-79
2023/09/03 08:13:17;;;;;;;28.98;25.98;;;28.80;98.90;;;;;;5106669;28;20172;-79
2023/09/03 08:15:43;;;;;;;30.05;26.83;;;28.10;99.20;;;;;;5109391;28;20172;-80
2023/09/03 08:18:10;;;;;;;29.90;26.80;;;28.40;99.00;;;;;;5109180;28;20540;-79
2023/09/03 08:20:35;;;;;;;30.30;27.08;;;27.60;99.90;;;;;;5105189;28;20223;-77
2023/09/03 08:23:01;;;;;;;28.45;25.45;;;26.50;99.90;;;;;;5104944;28;20175;-79
2023/09/03 08:25:28;;;;;;;28.30;25.40;;;27.00;99.90;;;;;;5105676;28;20190;-78
2023/09/03 08:27:54;;;;;;;27.83;24.92;;;27.60;99.90;;;;;;5109430;28;20634;-79
2023/09/03 08:30:19;;;;;;;27.30;24.50;;;27.70;99.90;;;;;;5108047;28;20241;-79
2023/09/03 08:32:45;;;;;;;27.65;24.83;;;28.10;99.90;;;;;;5108829;28;20167;-79
2023/09/03 08:35:10;;;;;;;29.75;26.33;;;28.10;99.90;;;;;;5106794;28;20196;-80
2023/09/03 08:37:36;;;;;;;31.58;28.30;;;27.30;99.90;;;;;;5105169;28;20362;-79
2023/09/03 08:40:02;;;;;;;28.95;25.95;;;27.80;99.90;;;;;;5100264;28;20243;-79
2023/09/03 08:42:29;;;;;;;29.67;26.58;;;27.40;99.90;;;;;;5100578;28;20631;-78
2023/09/03 08:45:06;;;;;;;29.73;26.63;;;27.30;99.90;;;;;;5103291;28;20180;-79
2023/09/03 08:47:37;;;;;;;30.90;27.73;;;28.00;99.90;;;;;;5101017;28;20670;-78
2023/09/03 08:50:03;;;;;;;29.65;26.73;;;28.70;99.40;;;;;;5102669;28;20761;-79
2023/09/03 08:52:29;;;;;;;30.23;27.23;;;28.70;98.20;;;;;;5101027;28;20260;-79
2023/09/03 08:54:55;;;;;;;30.25;27.02;;;28.40;98.50;;;;;;5108241;28;20630;-81
2023/09/03 08:57:27;;;;;;;29.58;26.60;;;28.40;98.40;;;;;;5104181;28;20196;-80
2023/09/03 08:59:54;;;;;;;32.42;28.40;;;27.40;99.90;;;;;;5098982;28;20240;-81
2023/09/03 09:02:21;;;;;;;30.45;27.25;;;26.70;99.90;;;;;;5096149;28;20168;-80
2023/09/03 09:04:47;;;;;;;30.40;27.02;;;26.40;99.90;;;;;;5097000;28;20231;-80
2023/09/03 09:07:14;;;;;;;31.83;28.00;;;26.50;99.90;;;;;;5095867;28;20164;-79
2023/09/03 09:09:40;;;;;;;29.77;26.67;;;26.30;99.90;;;;;;5095697;28;20183;-80
2023/09/03 09:12:16;;;;;;;28.55;25.52;;;26.30;99.90;;;;;;5095442;28;20631;-80
2023/09/03 09:14:52;;;;;;;28.20;25.23;;;26.60;99.90;;;;;;5095060;28;20176;-81
2023/09/03 09:17:18;;;;;;;27.70;24.77;;;27.10;99.90;;;;;;5095022;28;20697;-80
2023/09/03 09:19:43;;;;;;;26.23;23.48;;;27.20;99.90;;;;;;5094536;28;20219;-81
2023/09/03 09:22:10;;;;;;;25.10;22.48;;;27.10;99.90;;;;;;5094614;28;20168;-82
2023/09/03 09:24:43;;;;;;;27.65;24.08;;;27.50;99.90;;;;;;5095063;28;20171;-81
2023/09/03 09:27:19;;;;;;;26.70;22.45;;;26.60;99.90;;;;;;5094515;28;20627;-79
2023/09/03 09:29:46;;;;;;;23.50;21.15;;;26.80;99.90;;;;;;5094798;28;20172;-80
2023/09/03 09:32:23;;;;;;;24.40;21.90;;;26.20;99.90;;;;;;5093722;28;20171;-80
2023/09/03 09:34:49;;;;;;;22.55;20.10;;;26.00;99.90;;;;;;5094835;28;20225;-81
2023/09/03 09:37:15;;;;;;;24.08;21.58;;;25.60;99.90;;;;;;5094574;28;20214;-80
2023/09/03 09:39:48;;;;;;;26.05;23.17;;;25.70;99.90;;;;;;5094502;28;20178;-79
2023/09/03 09:42:18;;;;;;;21.75;19.45;;;25.50;99.90;;;;;;5095170;28;20297;-81
2023/09/03 09:44:52;;;;;;;23.15;19.65;;;24.70;99.90;;;;;;5094291;28;20524;-80
2023/09/03 09:47:19;;;;;;;21.98;19.73;;;24.60;99.90;;;;;;5094115;28;20178;-81
2023/09/03 09:49:45;;;;;;;20.55;18.45;;;24.70;99.90;;;;;;5091654;28;20222;-82
2023/09/03 09:52:12;;;;;;;22.65;17.50;;;25.60;99.90;;;;;;5094086;28;20168;-82
2023/09/03 09:54:42;;;;;;;18.95;16.95;;;26.20;99.90;;;;;;5094335;28;20211;-79
2023/09/03 09:57:14;;;;;;;19.92;17.58;;;27.10;99.90;;;;;;5093773;28;20192;-79
2023/09/03 09:59:50;;;;;;;17.90;16.20;;;27.10;99.90;;;;;;5093720;28;20179;-81
2023/09/03 10:02:16;;;;;;;19.48;17.67;;;27.60;99.90;;;;;;5093766;28;20195;-79
2023/09/03 10:04:43;;;;;;;16.10;14.50;;;27.50;99.90;;;;;;5094532;28;20168;-80
2023/09/03 10:07:10;;;;;;;20.20;18.05;;;28.10;99.90;;;;;;5093964;28;20200;-79
2023/09/03 10:09:35;;;;;;;17.95;16.15;;;27.90;99.90;;;;;;5093964;28;20247;-80
2023/09/03 10:12:05;;;;;;;19.42;16.73;;;28.60;98.40;;;;;;5094638;28;20673;-80
2023/09/03 10:14:30;;;;;;;16.35;14.90;;;28.40;97.50;;;;;;5094345;28;20171;-81
2023/09/03 10:17:01;;;;;;;14.93;13.55;;;28.50;98.30;;;;;;5094305;28;20647;-81
2023/09/03 10:19:31;;;;;;;16.10;14.60;;;29.70;96.70;;;;;;5092655;28;20219;-80
2023/09/03 10:22:02;;;;;;;17.30;15.50;;;29.60;94.90;;;;;;5094046;28;20168;-81
2023/09/03 10:24:29;;;;;;;16.38;14.93;;;30.00;94.50;;;;;;5093640;28;20202;-80
2023/09/03 10:27:02;;;;;;;15.77;14.27;;;29.60;95.00;;;;;;5093545;28;20172;-80
2023/09/03 10:29:31;;;;;;;15.85;14.45;;;29.80;95.10;;;;;;5093590;28;20168;-80
2023/09/03 10:32:00;;;;;;;17.70;15.95;;;29.30;95.60;;;;;;5093787;28;20182;-79
2023/09/03 10:34:26;;;;;;;16.75;15.15;;;28.40;97.60;;;;;;5093275;28;20184;-80
2023/09/03 10:37:03;;;;;;;15.43;13.85;;;28.70;96.70;;;;;;5093335;28;20207;-80
2023/09/03 10:39:29;;;;;;;17.63;15.85;;;28.60;97.40;;;;;;5093238;28;20171;-80
2023/09/03 10:42:27;;;;;;;15.57;14.07;;;28.50;98.00;;;;;;5093412;28;20168;-79
2023/09/03 10:45:00;;;;;;;14.77;13.38;;;28.10;98.10;;;;;;5091953;28;20164;-79
2023/09/03 10:47:26;;;;;;;15.45;14.05;;;28.00;98.40;;;;;;5092713;28;20202;-79
2023/09/03 10:49:53;;;;;;;12.70;11.50;;;28.20;97.60;;;;;;5093113;28;20193;-79
2023/09/03 10:52:28;;;;;;;13.80;12.45;;;27.30;98.10;;;;;;5093273;28;20179;-79
2023/09/03 10:55:15;;;;;;;13.75;12.55;;;26.70;99.90;;;;;;5093489;28;20634;-79
2023/09/03 10:57:43;;;;;;;15.25;13.55;;;27.40;99.90;;;;;;5093476;28;20242;-78
2023/09/03 11:00:10;;;;;;;14.60;13.25;;;27.70;98.70;;;;;;5093089;28;20220;-80
2023/09/03 11:02:37;;;;;;;11.85;10.80;;;27.40;99.20;;;;;;5092351;28;20194;-80
2023/09/03 11:05:20;;;;;;;12.52;11.43;;;27.40;99.70;;;;;;5093302;28;20173;-80
2023/09/03 11:07:47;;;;;;;12.32;11.25;;;27.80;98.70;;;;;;5093307;28;20168;-80
2023/09/03 11:10:25;;;;;;;12.63;11.32;;;27.90;98.20;;;;;;5091685;28;20171;-82
2023/09/03 11:12:52;;;;;;;13.30;12.10;;;27.70;98.30;;;;;;5091522;28;20543;-79
2023/09/03 11:15:19;;;;;;;11.18;10.18;;;27.00;99.20;;;;;;5093151;28;20305;-80
2023/09/03 11:17:52;;;;;;;8.68;7.97;;;27.20;98.40;;;;;;5092804;28;20207;-80
2023/09/03 11:20:32;;;;;;;10.18;9.27;;;27.20;97.40;;;;;;5092746;28;20215;-81
2023/09/03 11:23:02;;;;;;;12.13;11.05;;;27.60;98.10;;;;;;5093285;28;20172;-79
2023/09/03 11:25:36;;;;;;;11.38;10.18;;;26.90;99.30;;;;;;5093202;28;20246;-79
2023/09/03 11:28:02;;;;;;;11.32;10.20;;;26.60;98.80;;;;;;5092737;28;20563;-80
2023/09/03 11:30:29;;;;;;;11.68;9.80;;;27.20;98.70;;;;;;5093066;28;20666;-81
2023/09/03 11:32:55;;;;;;;9.63;8.82;;;27.70;97.80;;;;;;5092725;28;20182;-81
2023/09/03 11:35:21;;;;;;;9.57;8.68;;;28.40;96.00;;;;;;5091783;28;20192;-80
2023/09/03 11:37:48;;;;;;;10.40;9.43;;;28.40;95.30;;;;;;5092512;28;20663;-81
2023/09/03 11:40:14;;;;;;;8.73;7.88;;;27.70;96.60;;;;;;5092254;28;20233;-79
2023/09/03 11:42:44;;;;;;;10.23;9.35;;;27.60;96.30;;;;;;5092630;28;20175;-79
2023/09/03 11:45:11;;;;;;;9.65;8.85;;;27.80;97.00;;;;;;5091953;28;20532;-78
2023/09/03 11:47:56;;;;;;;9.98;9.07;;;27.80;96.90;;;;;;5092311;28;20631;-79
2023/09/03 11:50:21;;;;;;;8.90;8.20;;;28.10;96.20;;;;;;5092814;28;20172;-79
2023/09/03 11:52:58;;;;;;;6.30;5.90;;;28.90;94.70;;;;;;5092560;28;20667;-79
2023/09/03 11:55:28;;;;;;;7.28;6.57;;;27.50;94.80;;;;;;5092959;28;20171;-79
2023/09/03 11:57:56;;;;;;;6.53;6.10;;;26.90;96.80;;;;;;5092213;28;20207;-80
2023/09/03 12:00:22;;;;;;;7.63;7.03;;;26.40;97.40;;;;;;5092696;28;20168;-80
2023/09/03 12:02:49;;;;;;;7.50;6.80;;;26.00;98.40;;;;;;5092667;28;20623;-80
2023/09/03 12:05:15;;;;;;;7.15;6.50;;;26.40;98.60;;;;;;5091967;28;20168;-80
2023/09/03 12:07:41;;;;;;;8.05;7.40;;;27.10;97.80;;;;;;5092768;28;20518;-78
2023/09/03 12:10:08;;;;;;;8.35;7.65;;;26.90;98.20;;;;;;5092332;28;20172;-79
2023/09/03 12:12:34;;;;;;;7.70;7.03;;;26.60;99.10;;;;;;5092207;28;20176;-80
2023/09/03 12:15:00;;;;;;;7.63;7.00;;;26.60;98.90;;;;;;5095186;28;20171;-81
2023/09/03 12:17:27;;;;;;;7.70;7.10;;;26.60;99.20;;;;;;5096124;28;20200;-80
2023/09/03 12:19:53;;;;;;;7.95;7.25;;;26.10;99.70;;;;;;5095822;28;20600;-79
2023/09/03 12:22:19;;;;;;;8.50;7.80;;;26.10;99.90;;;;;;5096232;28;20182;-79
2023/09/03 12:24:49;;;;;;;8.32;7.68;;;26.10;99.90;;;;;;5095775;28;20172;-80
2023/09/03 12:27:15;;;;;;;7.50;6.90;;;26.10;99.90;;;;;;5095894;28;20527;-78
2023/09/03 12:29:41;;;;;;;11.25;10.32;;;26.10;99.90;;;;;;5095404;28;20164;-79
2023/09/03 12:32:08;;;;;;;8.80;8.10;;;25.70;99.90;;;;;;5096347;28;20233;-80